createdAt,value
2022-09-07T00:00:23.403Z,100.00
2022-09-07T00:02:50.135Z,100.00
2022-09-07T00:05:16.918Z,100.00
2022-09-07T00:07:43.571Z,100.00
2022-09-07T00:10:10.339Z,100.00
2022-09-07T00:12:37.097Z,100.00
2022-09-07T00:15:08.293Z,100.00
2022-09-07T00:17:35.604Z,100.00
2022-09-07T00:20:03.900Z,100.00
2022-09-07T00:22:30.915Z,100.00
2022-09-07T00:24:57.636Z,100.00
2022-09-07T00:27:24.395Z,100.00
2022-09-07T00:29:51.066Z,100.00
2022-09-07T00:32:17.736Z,100.00
2022-09-07T00:34:44.545Z,100.00
2022-09-07T00:37:11.211Z,100.00
2022-09-07T00:39:37.933Z,100.00
2022-09-07T00:42:04.960Z,100.00
2022-09-07T00:45:02.129Z,100.00
2022-09-07T00:47:28.893Z,100.00
2022-09-07T00:49:58.775Z,100.00
2022-09-07T00:52:28.288Z,100.00
2022-09-07T00:54:59.241Z,100.00
2022-09-07T00:57:28.216Z,100.00
2022-09-07T00:59:57.534Z,100.00
2022-09-07T01:02:25.950Z,100.00
2022-09-07T01:05:02.918Z,100.00
2022-09-07T01:07:31.195Z,100.00
2022-09-07T01:09:58.203Z,100.00
2022-09-07T01:12:24.953Z,100.00
2022-09-07T01:14:53.002Z,100.00
2022-09-07T01:17:51.819Z,100.00
2022-09-07T01:20:19.541Z,100.00
2022-09-07T01:23:16.625Z,100.00
2022-09-07T01:25:58.644Z,100.00
2022-09-07T01:28:32.436Z,100.00
2022-09-07T01:31:19.523Z,100.00
2022-09-07T01:34:10.028Z,100.00
2022-09-07T01:36:50.568Z,100.00
2022-09-07T01:39:19.452Z,100.00
2022-09-07T01:41:58.833Z,100.00
2022-09-07T01:44:34.906Z,100.00
2022-09-07T01:47:08.362Z,100.00
2022-09-07T01:49:45.247Z,100.00
2022-09-07T01:52:36.646Z,100.00
2022-09-07T01:55:16.430Z,100.00
2022-09-07T01:57:52.547Z,100.00
2022-09-07T02:00:23.162Z,100.00
2022-09-07T02:02:55.640Z,100.00
2022-09-07T02:05:31.672Z,100.00
2022-09-07T02:08:09.652Z,100.00
2022-09-07T02:10:42.804Z,100.00
2022-09-07T02:13:14.140Z,100.00
2022-09-07T02:15:49.279Z,100.00
2022-09-07T02:18:16.065Z,100.00
2022-09-07T02:20:48.985Z,100.00
2022-09-07T02:23:26.047Z,100.00
2022-09-07T02:26:00.918Z,100.00
2022-09-07T02:28:32.875Z,100.00
2022-09-07T02:31:00.908Z,100.00
2022-09-07T02:33:28.654Z,100.00
2022-09-07T02:35:55.741Z,100.00
2022-09-07T02:38:22.953Z,100.00
2022-09-07T02:40:52.364Z,100.00
2022-09-07T02:43:20.846Z,100.00
2022-09-07T02:46:22.677Z,100.00
2022-09-07T02:49:09.187Z,100.00
2022-09-07T02:52:04.777Z,100.00
2022-09-07T02:54:46.694Z,100.00
2022-09-07T02:57:43.883Z,100.00
2022-09-07T03:00:13.431Z,100.00
2022-09-07T03:02:55.470Z,100.00
2022-09-07T03:05:28.765Z,100.00
2022-09-07T03:08:02.635Z,100.00
2022-09-07T03:10:30.200Z,100.00
2022-09-07T03:12:56.965Z,100.00
2022-09-07T03:15:26.182Z,100.00
2022-09-07T03:17:53.686Z,100.00
2022-09-07T03:20:21.780Z,100.00
2022-09-07T03:22:50.655Z,100.00
2022-09-07T03:25:18.843Z,100.00
2022-09-07T03:27:45.488Z,100.00
2022-09-07T03:30:13.340Z,100.00
2022-09-07T03:32:40.327Z,100.00
2022-09-07T03:35:08.163Z,100.00
2022-09-07T03:37:36.895Z,100.00
2022-09-07T03:40:05.785Z,100.00
2022-09-07T03:42:32.644Z,100.00
2022-09-07T03:44:59.264Z,100.00
2022-09-07T03:47:25.962Z,100.00
2022-09-07T03:49:52.731Z,100.00
2022-09-07T03:52:19.406Z,100.00
2022-09-07T03:54:46.370Z,100.00
2022-09-07T03:57:13.434Z,100.00
2022-09-07T03:59:40.087Z,100.00
2022-09-07T04:02:06.915Z,100.00
2022-09-07T04:04:33.996Z,100.00
2022-09-07T04:07:00.721Z,100.00
2022-09-07T04:09:27.460Z,100.00
2022-09-07T04:11:54.131Z,100.00
2022-09-07T04:14:20.872Z,100.00
2022-09-07T04:16:47.674Z,100.00
2022-09-07T04:19:14.892Z,100.00
2022-09-07T04:21:44.306Z,100.00
2022-09-07T04:24:10.953Z,100.00
2022-09-07T04:26:38.033Z,100.00
2022-09-07T04:29:06.106Z,100.00
2022-09-07T04:31:35.499Z,100.00
2022-09-07T04:34:02.737Z,100.00
2022-09-07T04:36:29.625Z,100.00
2022-09-07T04:38:59.506Z,100.00
2022-09-07T04:41:27.187Z,100.00
2022-09-07T04:43:56.159Z,100.00
2022-09-07T04:46:25.311Z,100.00
2022-09-07T04:48:55.079Z,100.00
2022-09-07T04:51:24.225Z,100.00
2022-09-07T04:53:53.289Z,100.00
2022-09-07T04:56:21.280Z,100.00
2022-09-07T04:58:48.405Z,100.00
2022-09-07T05:01:18.138Z,100.00
2022-09-07T05:03:45.634Z,100.00
2022-09-07T05:06:12.767Z,100.00
2022-09-07T05:08:43.623Z,100.00
2022-09-07T05:11:11.575Z,100.00
2022-09-07T05:13:38.342Z,100.00
2022-09-07T05:16:10.442Z,100.00
2022-09-07T05:18:37.823Z,100.00
2022-09-07T05:21:08.602Z,100.00
2022-09-07T05:23:35.823Z,100.00
2022-09-07T05:26:04.705Z,100.00
2022-09-07T05:28:32.278Z,100.00
2022-09-07T05:31:17.453Z,100.00
2022-09-07T05:36:33.803Z,100.00
2022-09-07T05:39:00.446Z,100.00
2022-09-07T05:41:28.099Z,100.00
2022-09-07T05:46:42.064Z,100.00
2022-09-07T05:49:08.902Z,100.00
2022-09-07T05:51:37.085Z,100.00
2022-09-07T05:54:04.248Z,100.00
2022-09-07T05:56:34.431Z,100.00
2022-09-07T05:59:01.087Z,100.00
2022-09-07T06:01:31.769Z,100.00
2022-09-07T06:03:58.843Z,100.00
2022-09-07T06:06:28.808Z,100.00
2022-09-07T06:08:57.617Z,100.00
2022-09-07T06:11:27.028Z,100.00
2022-09-07T06:13:53.711Z,100.00
2022-09-07T06:16:20.891Z,100.00
2022-09-07T06:18:49.543Z,100.00
2022-09-07T06:21:19.807Z,100.00
2022-09-07T06:23:48.395Z,100.00
2022-09-07T06:26:16.632Z,100.00
2022-09-07T06:28:49.150Z,100.00
2022-09-07T06:31:20.494Z,100.00
2022-09-07T06:33:48.240Z,100.00
2022-09-07T06:36:17.567Z,100.00
2022-09-07T06:38:45.183Z,100.00
2022-09-07T06:43:59.410Z,100.00
2022-09-07T06:49:12.839Z,100.00
2022-09-07T06:51:39.528Z,100.00
2022-09-07T06:56:52.876Z,100.00
2022-09-07T06:59:19.473Z,100.00
2022-09-07T07:01:46.188Z,100.00
2022-09-07T07:04:13.344Z,100.00
2022-09-07T07:06:40.294Z,100.00
2022-09-07T07:09:08.925Z,100.00
2022-09-07T07:11:37.227Z,100.00
2022-09-07T07:14:04.426Z,100.00
2022-09-07T07:16:31.174Z,100.00
2022-09-07T07:18:58.031Z,100.00
2022-09-07T07:21:24.892Z,100.00
2022-09-07T07:23:53.137Z,100.00
2022-09-07T07:26:23.725Z,100.00
2022-09-07T07:31:26.995Z,100.00
2022-09-07T07:33:54.332Z,100.00
2022-09-07T07:36:24.264Z,100.00
2022-09-07T07:39:02.074Z,100.00
2022-09-07T07:44:18.751Z,100.00
2022-09-07T07:46:49.168Z,100.00
2022-09-07T07:49:16.070Z,100.00
2022-09-07T07:54:29.510Z,99.87
2022-09-07T07:56:56.135Z,99.75
2022-09-07T07:59:22.876Z,98.07
2022-09-07T08:01:51.930Z,97.53
2022-09-07T08:04:18.792Z,98.65
2022-09-07T08:06:45.422Z,99.73
2022-09-07T08:09:12.098Z,99.09
2022-09-07T08:11:40.274Z,98.46
2022-09-07T08:14:09.828Z,98.63
2022-09-07T08:16:37.719Z,99.16
2022-09-07T08:19:05.678Z,96.95
2022-09-07T08:21:32.277Z,95.95
2022-09-07T08:23:59.902Z,93.92
2022-09-07T08:26:27.284Z,95.00
2022-09-07T08:28:54.016Z,96.66
2022-09-07T08:31:20.885Z,93.46
2022-09-07T08:33:47.447Z,94.36
2022-09-07T08:36:17.786Z,96.20
2022-09-07T08:38:45.021Z,95.74
2022-09-07T08:41:27.492Z,94.35
2022-09-07T08:44:01.026Z,94.39
2022-09-07T08:46:31.383Z,91.46
2022-09-07T08:49:01.119Z,90.14
2022-09-07T08:51:46.440Z,88.17
2022-09-07T08:54:16.726Z,90.24
2022-09-07T08:59:55.449Z,91.83
2022-09-07T09:02:32.616Z,91.92
2022-09-07T09:05:18.872Z,91.11
2022-09-07T09:08:05.622Z,90.47
2022-09-07T09:10:38.098Z,91.24
2022-09-07T09:13:15.929Z,89.74
2022-09-07T09:15:44.636Z,89.26
2022-09-07T09:18:21.934Z,86.98
2022-09-07T09:20:53.471Z,87.58
2022-09-07T09:23:24.699Z,85.51
2022-09-07T09:25:54.175Z,87.00
2022-09-07T09:28:21.362Z,85.18
2022-09-07T09:30:48.343Z,84.26
2022-09-07T09:33:19.724Z,81.80
2022-09-07T09:35:50.041Z,82.47
2022-09-07T09:38:34.810Z,82.76
2022-09-07T09:41:09.872Z,81.24
2022-09-07T09:43:51.763Z,80.68
2022-09-07T09:46:33.531Z,82.57
2022-09-07T09:49:13.907Z,83.08
2022-09-07T09:54:37.271Z,84.85
2022-09-07T09:57:04.050Z,85.36
2022-09-07T10:05:36.286Z,81.96
2022-09-07T10:08:17.663Z,81.77
2022-09-07T10:10:54.396Z,81.72
2022-09-07T10:13:23.483Z,82.35
2022-09-07T10:15:52.200Z,82.87
2022-09-07T10:18:28.007Z,83.29
2022-09-07T10:21:13.131Z,83.60
2022-09-07T10:23:40.374Z,83.05
2022-09-07T10:26:22.460Z,79.54
2022-09-07T10:31:42.472Z,81.85
2022-09-07T10:34:31.029Z,82.47
2022-09-07T10:37:05.534Z,80.88
2022-09-07T10:39:37.157Z,80.38
2022-09-07T10:42:26.344Z,81.53
2022-09-07T10:45:01.180Z,77.53
2022-09-07T10:47:52.319Z,77.54
2022-09-07T10:50:23.154Z,78.31
2022-09-07T10:53:40.116Z,77.37
2022-09-07T10:56:10.455Z,76.15
2022-09-07T10:59:02.343Z,75.55
2022-09-07T11:02:00.170Z,75.09
2022-09-07T11:04:51.466Z,75.38
2022-09-07T11:07:20.216Z,75.80
2022-09-07T11:09:56.302Z,77.85
2022-09-07T11:12:30.862Z,77.44
2022-09-07T11:15:18.703Z,77.39
2022-09-07T11:17:53.290Z,76.71
2022-09-07T11:20:34.183Z,77.60
2022-09-07T11:23:21.566Z,76.97
2022-09-07T11:26:19.182Z,76.26
2022-09-07T11:31:57.569Z,76.08
2022-09-07T11:34:41.088Z,77.43
2022-09-07T11:37:19.976Z,74.29
2022-09-07T11:39:53.682Z,73.63
2022-09-07T11:42:43.495Z,75.20
2022-09-07T11:45:28.770Z,72.36
2022-09-07T11:48:04.018Z,72.36
2022-09-07T11:50:35.419Z,71.95
2022-09-07T11:53:07.767Z,70.39
2022-09-07T11:55:39.544Z,68.73
2022-09-07T11:58:36.590Z,69.49
2022-09-07T12:01:33.665Z,72.05
2022-09-07T12:04:40.164Z,72.21
2022-09-07T12:07:15.128Z,72.12
2022-09-07T12:10:08.248Z,71.97
2022-09-07T12:13:05.445Z,70.57
2022-09-07T12:15:47.637Z,69.68
2022-09-07T12:18:21.761Z,69.32
2022-09-07T12:20:49.016Z,68.55
2022-09-07T12:23:15.578Z,69.83
2022-09-07T12:25:44.368Z,70.21
2022-09-07T12:28:50.791Z,68.96
2022-09-07T12:31:57.599Z,68.15
2022-09-07T12:34:33.614Z,70.29
2022-09-07T12:37:03.688Z,68.92
2022-09-07T12:39:33.036Z,69.34
2022-09-07T12:42:37.826Z,65.98
2022-09-07T12:45:44.269Z,67.81
2022-09-07T12:48:30.768Z,67.15
2022-09-07T12:51:59.367Z,67.62
2022-09-07T12:54:04.252Z,66.88
2022-09-07T12:59:56.435Z,67.95
2022-09-07T13:02:48.874Z,66.59
2022-09-07T13:05:28.744Z,66.71
2022-09-07T13:08:25.973Z,66.22
2022-09-07T13:10:52.731Z,67.56
2022-09-07T13:16:13.907Z,66.52
2022-09-07T13:18:43.762Z,64.11
2022-09-07T13:21:11.886Z,64.18
2022-09-07T13:23:40.340Z,65.17
2022-09-07T13:26:10.905Z,64.06
2022-09-07T13:28:40.481Z,63.38
2022-09-07T13:31:42.490Z,62.74
2022-09-07T13:34:39.584Z,62.33
2022-09-07T13:37:15.007Z,61.33
2022-09-07T13:39:45.809Z,65.46
2022-09-07T13:42:19.619Z,65.68
2022-09-07T13:44:56.298Z,65.09
2022-09-07T13:47:48.487Z,65.03
2022-09-07T13:50:34.269Z,64.63
2022-09-07T13:53:00.754Z,65.08
2022-09-07T13:55:45.597Z,65.46
2022-09-07T13:58:18.021Z,65.79
2022-09-07T14:00:55.478Z,68.53
2022-09-07T14:03:28.151Z,66.74
2022-09-07T14:06:14.667Z,68.43
2022-09-07T14:08:49.534Z,64.13
2022-09-07T14:11:27.673Z,62.10
2022-09-07T14:14:12.647Z,64.15
2022-09-07T14:16:42.532Z,63.83
2022-09-07T14:19:18.315Z,68.43
2022-09-07T14:21:53.162Z,68.54
2022-09-07T14:24:29.538Z,67.89
2022-09-07T14:26:56.574Z,67.68
2022-09-07T14:29:26.672Z,68.13
2022-09-07T14:31:54.394Z,67.50
2022-09-07T14:34:24.752Z,62.91
2022-09-07T14:36:52.457Z,62.90
2022-09-07T14:39:22.280Z,63.46
2022-09-07T14:41:49.910Z,63.31
2022-09-07T14:44:34.067Z,62.84
2022-09-07T14:47:06.091Z,64.57
2022-09-07T14:49:33.329Z,64.27
2022-09-07T14:52:00.797Z,65.28
2022-09-07T14:54:31.702Z,66.94
2022-09-07T14:57:25.722Z,65.03
2022-09-07T14:59:53.813Z,66.86
2022-09-07T15:02:23.398Z,65.80
2022-09-07T15:05:18.944Z,67.29
2022-09-07T15:07:48.413Z,68.21
2022-09-07T15:10:28.939Z,67.65
2022-09-07T15:12:58.476Z,69.49
2022-09-07T15:15:27.622Z,70.57
2022-09-07T15:18:00.825Z,69.12
2022-09-07T15:20:35.295Z,69.36
2022-09-07T15:23:04.815Z,72.08
2022-09-07T15:25:32.870Z,70.40
2022-09-07T15:28:00.256Z,68.87
2022-09-07T15:30:27.423Z,68.40
2022-09-07T15:32:56.881Z,73.12
2022-09-07T15:35:23.923Z,70.85
2022-09-07T15:38:58.914Z,72.17
2022-09-07T15:41:03.847Z,73.26
2022-09-07T15:43:29.770Z,75.69
2022-09-07T15:45:56.477Z,75.02
2022-09-07T15:48:25.334Z,74.91
2022-09-07T15:51:02.522Z,75.46
2022-09-07T15:56:17.287Z,75.13
2022-09-07T15:58:46.586Z,72.36
2022-09-07T16:04:00.541Z,73.28
2022-09-07T16:06:27.279Z,73.55
2022-09-07T16:08:54.700Z,74.96
2022-09-07T16:11:24.276Z,73.38
2022-09-07T16:14:06.344Z,74.31
2022-09-07T16:19:28.031Z,73.32
2022-09-07T16:21:57.469Z,72.85
2022-09-07T16:24:24.389Z,71.29
2022-09-07T16:26:50.990Z,72.52
2022-09-07T16:29:17.903Z,72.82
2022-09-07T16:34:31.390Z,73.70
2022-09-07T16:36:58.084Z,73.18
2022-09-07T16:39:24.691Z,73.52
2022-09-07T16:41:51.383Z,75.17
2022-09-07T16:44:18.964Z,74.10
2022-09-07T16:46:45.498Z,73.38
2022-09-07T16:49:12.650Z,73.67
2022-09-07T16:51:40.133Z,73.73
2022-09-07T16:54:06.924Z,74.56
2022-09-07T16:56:38.313Z,74.57
2022-09-07T16:59:07.092Z,76.01
2022-09-07T17:01:37.987Z,77.24
2022-09-07T17:04:09.802Z,76.91
2022-09-07T17:06:37.268Z,76.25
2022-09-07T17:09:04.327Z,75.95
2022-09-07T17:11:33.343Z,76.59
2022-09-07T17:14:00.362Z,76.17
2022-09-07T17:16:32.081Z,77.88
2022-09-07T17:21:51.823Z,79.79
2022-09-07T17:24:19.715Z,80.04
2022-09-07T17:26:46.604Z,80.45
2022-09-07T17:29:13.512Z,81.01
2022-09-07T17:34:29.036Z,82.30
2022-09-07T17:36:55.735Z,82.33
2022-09-07T17:39:22.348Z,82.56
2022-09-07T17:41:52.666Z,82.86
2022-09-07T17:44:20.095Z,83.25
2022-09-07T17:46:46.699Z,83.12
2022-09-07T17:49:16.366Z,82.91
2022-09-07T17:51:44.247Z,82.92
2022-09-07T17:54:14.430Z,83.52
2022-09-07T17:56:41.804Z,83.83
2022-09-07T18:01:56.192Z,84.22
2022-09-07T18:04:26.261Z,84.32
2022-09-07T18:06:54.185Z,84.49
2022-09-07T18:09:24.252Z,84.31
2022-09-07T18:11:51.184Z,84.39
2022-09-07T18:14:19.006Z,85.29
2022-09-07T18:16:47.914Z,85.44
2022-09-07T18:19:15.827Z,85.45
2022-09-07T18:21:43.657Z,85.84
2022-09-07T18:24:16.929Z,86.34
2022-09-07T18:26:49.672Z,86.84
2022-09-07T18:29:28.786Z,87.28
2022-09-07T18:31:56.790Z,87.88
2022-09-07T18:34:24.040Z,87.92
2022-09-07T18:36:50.721Z,87.73
2022-09-07T18:39:17.684Z,87.96
2022-09-07T18:41:44.354Z,87.80
2022-09-07T18:47:00.663Z,87.93
2022-09-07T18:49:27.476Z,88.02
2022-09-07T18:54:41.924Z,87.63
2022-09-07T18:57:08.771Z,87.61
2022-09-07T18:59:35.615Z,87.15
2022-09-07T19:02:05.030Z,86.61
2022-09-07T19:07:21.545Z,87.36
2022-09-07T19:09:49.759Z,87.40
2022-09-07T19:12:16.419Z,87.53
2022-09-07T19:14:43.064Z,86.93
2022-09-07T19:17:11.841Z,86.82
2022-09-07T19:19:39.998Z,87.96
2022-09-07T19:22:06.574Z,87.61
2022-09-07T19:24:33.410Z,87.14
2022-09-07T19:27:01.131Z,88.23
2022-09-07T19:29:28.173Z,86.81
2022-09-07T19:32:11.304Z,87.29
2022-09-07T19:34:40.892Z,87.46
2022-09-07T19:37:10.134Z,87.77
2022-09-07T19:39:37.186Z,87.16
2022-09-07T19:42:05.315Z,87.44
2022-09-07T19:44:32.935Z,88.14
2022-09-07T19:47:00.448Z,88.19
2022-09-07T19:49:27.748Z,88.97
2022-09-07T19:51:54.663Z,88.95
2022-09-07T19:54:21.443Z,89.33
2022-09-07T19:56:48.291Z,89.61
2022-09-07T19:59:14.999Z,87.70
2022-09-07T20:01:46.055Z,87.99
2022-09-07T20:04:19.642Z,88.00
2022-09-07T20:06:49.791Z,87.04
2022-09-07T20:09:18.690Z,87.67
2022-09-07T20:11:47.502Z,88.09
2022-09-07T20:14:16.251Z,88.20
2022-09-07T20:16:43.793Z,88.57
2022-09-07T20:19:12.056Z,88.69
2022-09-07T20:21:38.627Z,88.47
2022-09-07T20:24:05.774Z,87.96
2022-09-07T20:26:32.741Z,87.79
2022-09-07T20:29:23.369Z,87.62
2022-09-07T20:31:47.239Z,87.83
2022-09-07T20:34:14.381Z,87.35
2022-09-07T20:36:41.260Z,86.94
2022-09-07T20:39:07.887Z,87.29
2022-09-07T20:41:34.725Z,88.37
2022-09-07T20:44:03.559Z,88.64
2022-09-07T20:46:31.224Z,89.08
2022-09-07T20:48:58.566Z,89.24
2022-09-07T20:51:25.818Z,89.43
2022-09-07T20:53:52.931Z,89.82
2022-09-07T20:56:22.342Z,90.28
2022-09-07T20:58:53.603Z,90.63
2022-09-07T21:01:21.269Z,90.39
2022-09-07T21:03:51.741Z,89.52
2022-09-07T21:06:19.409Z,89.70
2022-09-07T21:08:47.227Z,90.01
2022-09-07T21:11:19.921Z,90.69
2022-09-07T21:13:47.052Z,90.71
2022-09-07T21:16:16.457Z,90.70
2022-09-07T21:18:44.461Z,91.16
2022-09-07T21:21:20.361Z,91.46
2022-09-07T21:23:48.061Z,91.68
2022-09-07T21:26:15.216Z,92.03
2022-09-07T21:28:42.348Z,92.62
2022-09-07T21:31:09.556Z,92.55
2022-09-07T21:33:37.685Z,92.82
2022-09-07T21:36:08.085Z,92.89
2022-09-07T21:38:36.734Z,92.57
2022-09-07T21:41:13.866Z,93.25
2022-09-07T21:43:41.208Z,93.68
2022-09-07T21:46:12.367Z,93.62
2022-09-07T21:48:39.300Z,93.76
2022-09-07T21:51:06.754Z,93.80
2022-09-07T21:53:34.141Z,94.26
2022-09-07T21:56:05.097Z,94.26
2022-09-07T21:58:32.682Z,94.23
2022-09-07T22:01:08.253Z,94.35
2022-09-07T22:03:35.058Z,94.26
2022-09-07T22:06:05.117Z,94.88
2022-09-07T22:08:31.731Z,95.86
2022-09-07T22:11:18.481Z,96.38
2022-09-07T22:13:45.755Z,96.29
2022-09-07T22:16:13.347Z,96.49
2022-09-07T22:18:43.795Z,96.81
2022-09-07T22:21:13.455Z,97.39
2022-09-07T22:23:45.174Z,97.21
2022-09-07T22:26:13.647Z,97.26
2022-09-07T22:28:40.898Z,98.19
2022-09-07T22:31:10.331Z,98.46
2022-09-07T22:33:37.446Z,99.04
2022-09-07T22:36:17.448Z,98.92
2022-09-07T22:38:46.025Z,98.77
2022-09-07T22:41:15.554Z,99.13
2022-09-07T22:43:42.885Z,99.24
2022-09-07T22:46:10.459Z,99.41
2022-09-07T22:48:37.766Z,99.33
2022-09-07T22:51:05.318Z,99.15
2022-09-07T22:53:35.680Z,99.96
2022-09-07T22:56:08.191Z,100.00
2022-09-07T22:58:35.176Z,100.00
2022-09-07T23:01:02.061Z,100.00
2022-09-07T23:03:29.611Z,100.00
2022-09-07T23:05:57.084Z,100.00
2022-09-07T23:08:25.327Z,100.00
2022-09-07T23:10:52.966Z,99.69
2022-09-07T23:13:20.152Z,100.00
2022-09-07T23:15:47.556Z,100.00
2022-09-07T23:18:15.112Z,100.00
2022-09-07T23:20:42.119Z,100.00
2022-09-07T23:23:09.224Z,100.00
2022-09-07T23:25:38.283Z,100.00
2022-09-07T23:28:06.278Z,100.00
2022-09-07T23:30:35.466Z,100.00
2022-09-07T23:33:02.998Z,100.00
2022-09-07T23:35:30.138Z,100.00
2022-09-07T23:37:57.068Z,100.00
2022-09-07T23:40:24.121Z,100.00
2022-09-07T23:42:50.746Z,100.00
2022-09-07T23:45:17.494Z,100.00
2022-09-07T23:47:44.064Z,100.00
2022-09-07T23:50:11.116Z,100.00
2022-09-07T23:52:37.970Z,100.00
2022-09-07T23:55:05.403Z,100.00
2022-09-07T23:57:34.351Z,100.00
